sensor_id;sensor_type;location;lat;lon;timestamp;temperature;humidity
19085;DHT22;9675;51.538;6.728;2023-04-10T00:00:10;12.60;99.90
19085;DHT22;9675;51.538;6.728;2023-04-10T00:02:40;12.60;99.90
19085;DHT22;9675;51.538;6.728;2023-04-10T00:05:09;12.50;99.90
19085;DHT22;9675;51.538;6.728;2023-04-10T00:07:37;12.50;99.90
19085;DHT22;9675;51.538;6.728;2023-04-10T00:10:04;12.60;99.90
19085;DHT22;9675;51.538;6.728;2023-04-10T00:12:32;12.50;99.90
19085;DHT22;9675;51.538;6.728;2023-04-10T00:15:02;12.50;99.90
19085;DHT22;9675;51.538;6.728;2023-04-10T00:17:30;12.40;99.90
19085;DHT22;9675;51.538;6.728;2023-04-10T00:19:57;12.50;99.90
19085;DHT22;9675;51.538;6.728;2023-04-10T00:22:25;12.40;99.90
19085;DHT22;9675;51.538;6.728;2023-04-10T00:24:52;12.40;99.90
19085;DHT22;9675;51.538;6.728;2023-04-10T00:27:19;12.40;99.90
19085;DHT22;9675;51.538;6.728;2023-04-10T00:29:46;12.30;99.90
19085;DHT22;9675;51.538;6.728;2023-04-10T00:32:14;12.30;99.90
19085;DHT22;9675;51.538;6.728;2023-04-10T00:34:42;12.30;99.90
19085;DHT22;9675;51.538;6.728;2023-04-10T00:37:09;12.30;99.90
19085;DHT22;9675;51.538;6.728;2023-04-10T00:39:36;12.30;99.90
19085;DHT22;9675;51.538;6.728;2023-04-10T00:42:03;12.30;99.90
19085;DHT22;9675;51.538;6.728;2023-04-10T00:44:33;12.20;99.90
19085;DHT22;9675;51.538;6.728;2023-04-10T00:47:02;12.20;99.90
19085;DHT22;9675;51.538;6.728;2023-04-10T00:49:31;12.20;99.90
19085;DHT22;9675;51.538;6.728;2023-04-10T00:51:58;12.20;99.90
19085;DHT22;9675;51.538;6.728;2023-04-10T00:54:26;12.10;99.90
19085;DHT22;9675;51.538;6.728;2023-04-10T00:56:53;12.10;99.90
19085;DHT22;9675;51.538;6.728;2023-04-10T00:59:21;12.10;99.90
19085;DHT22;9675;51.538;6.728;2023-04-10T01:01:49;12.10;99.90
19085;DHT22;9675;51.538;6.728;2023-04-10T01:04:16;12.10;99.90
19085;DHT22;9675;51.538;6.728;2023-04-10T01:06:53;12.00;99.90
19085;DHT22;9675;51.538;6.728;2023-04-10T01:09:40;12.00;99.90
19085;DHT22;9675;51.538;6.728;2023-04-10T01:12:19;12.00;99.90
19085;DHT22;9675;51.538;6.728;2023-04-10T01:15:03;12.00;99.90
19085;DHT22;9675;51.538;6.728;2023-04-10T01:17:41;12.00;99.90
19085;DHT22;9675;51.538;6.728;2023-04-10T01:20:13;11.90;99.90
19085;DHT22;9675;51.538;6.728;2023-04-10T01:22:57;11.90;99.90
19085;DHT22;9675;51.538;6.728;2023-04-10T01:25:39;11.90;99.90
19085;DHT22;9675;51.538;6.728;2023-04-10T01:31:35;11.80;99.90
19085;DHT22;9675;51.538;6.728;2023-04-10T01:34:09;11.80;99.90
19085;DHT22;9675;51.538;6.728;2023-04-10T01:36:45;11.70;99.90
19085;DHT22;9675;51.538;6.728;2023-04-10T01:39:18;11.70;99.90
19085;DHT22;9675;51.538;6.728;2023-04-10T01:41:48;11.70;99.90
19085;DHT22;9675;51.538;6.728;2023-04-10T01:44:22;11.70;99.90
19085;DHT22;9675;51.538;6.728;2023-04-10T01:46:52;11.70;99.90
19085;DHT22;9675;51.538;6.728;2023-04-10T01:49:23;11.60;99.90
19085;DHT22;9675;51.538;6.728;2023-04-10T01:51:52;11.60;99.90
19085;DHT22;9675;51.538;6.728;2023-04-10T01:54:23;11.60;99.90
19085;DHT22;9675;51.538;6.728;2023-04-10T01:56:53;11.60;99.90
19085;DHT22;9675;51.538;6.728;2023-04-10T01:59:22;11.60;99.90
19085;DHT22;9675;51.538;6.728;2023-04-10T02:01:55;11.60;99.90
19085;DHT22;9675;51.538;6.728;2023-04-10T02:04:22;11.60;99.90
19085;DHT22;9675;51.538;6.728;2023-04-10T02:06:56;11.50;99.90
19085;DHT22;9675;51.538;6.728;2023-04-10T02:09:36;11.50;99.90
19085;DHT22;9675;51.538;6.728;2023-04-10T02:12:14;11.50;99.90
19085;DHT22;9675;51.538;6.728;2023-04-10T02:14:46;11.50;99.90
19085;DHT22;9675;51.538;6.728;2023-04-10T02:17:17;11.50;99.90
19085;DHT22;9675;51.538;6.728;2023-04-10T02:19:50;11.50;99.90
19085;DHT22;9675;51.538;6.728;2023-04-10T02:22:22;11.50;99.90
19085;DHT22;9675;51.538;6.728;2023-04-10T02:24:51;11.40;99.90
19085;DHT22;9675;51.538;6.728;2023-04-10T02:27:26;11.40;99.90
19085;DHT22;9675;51.538;6.728;2023-04-10T02:29:56;11.40;99.90
19085;DHT22;9675;51.538;6.728;2023-04-10T02:32:23;11.40;99.90
19085;DHT22;9675;51.538;6.728;2023-04-10T02:34:50;11.40;99.90
19085;DHT22;9675;51.538;6.728;2023-04-10T02:37:17;11.30;99.90
19085;DHT22;9675;51.538;6.728;2023-04-10T02:39:45;11.30;99.90
19085;DHT22;9675;51.538;6.728;2023-04-10T02:42:12;11.30;99.90
19085;DHT22;9675;51.538;6.728;2023-04-10T02:44:39;11.30;99.90
19085;DHT22;9675;51.538;6.728;2023-04-10T02:47:08;11.30;99.90
19085;DHT22;9675;51.538;6.728;2023-04-10T02:49:35;11.30;99.90
19085;DHT22;9675;51.538;6.728;2023-04-10T02:52:02;11.20;99.90
19085;DHT22;9675;51.538;6.728;2023-04-10T02:54:29;11.20;99.90
19085;DHT22;9675;51.538;6.728;2023-04-10T02:56:57;11.30;99.90
19085;DHT22;9675;51.538;6.728;2023-04-10T02:59:24;11.20;99.90
19085;DHT22;9675;51.538;6.728;2023-04-10T03:01:52;11.20;99.90
19085;DHT22;9675;51.538;6.728;2023-04-10T03:04:20;11.20;99.90
19085;DHT22;9675;51.538;6.728;2023-04-10T03:06:48;11.20;99.90
19085;DHT22;9675;51.538;6.728;2023-04-10T03:09:15;11.20;99.90
19085;DHT22;9675;51.538;6.728;2023-04-10T03:11:42;11.10;99.90
19085;DHT22;9675;51.538;6.728;2023-04-10T03:14:09;11.10;99.90
19085;DHT22;9675;51.538;6.728;2023-04-10T03:16:39;11.10;99.90
19085;DHT22;9675;51.538;6.728;2023-04-10T03:19:06;11.10;99.90
19085;DHT22;9675;51.538;6.728;2023-04-10T03:21:35;11.10;99.90
19085;DHT22;9675;51.538;6.728;2023-04-10T03:24:02;11.10;99.90
19085;DHT22;9675;51.538;6.728;2023-04-10T03:26:29;11.10;99.90
19085;DHT22;9675;51.538;6.728;2023-04-10T03:28:56;11.10;99.90
19085;DHT22;9675;51.538;6.728;2023-04-10T03:31:23;11.10;99.90
19085;DHT22;9675;51.538;6.728;2023-04-10T03:33:50;11.10;99.90
19085;DHT22;9675;51.538;6.728;2023-04-10T03:36:17;11.10;99.90
19085;DHT22;9675;51.538;6.728;2023-04-10T03:38:46;11.00;99.90
19085;DHT22;9675;51.538;6.728;2023-04-10T03:41:13;11.00;99.90
19085;DHT22;9675;51.538;6.728;2023-04-10T03:43:40;11.00;99.90
19085;DHT22;9675;51.538;6.728;2023-04-10T03:46:07;11.00;99.90
19085;DHT22;9675;51.538;6.728;2023-04-10T03:48:34;11.00;99.90
19085;DHT22;9675;51.538;6.728;2023-04-10T03:51:01;11.00;99.90
19085;DHT22;9675;51.538;6.728;2023-04-10T03:53:28;10.90;99.90
19085;DHT22;9675;51.538;6.728;2023-04-10T03:56:01;10.90;99.90
19085;DHT22;9675;51.538;6.728;2023-04-10T03:58:29;10.90;99.90
19085;DHT22;9675;51.538;6.728;2023-04-10T04:00:56;10.90;99.90
19085;DHT22;9675;51.538;6.728;2023-04-10T04:03:23;10.90;99.90
19085;DHT22;9675;51.538;6.728;2023-04-10T04:05:50;10.90;99.90
19085;DHT22;9675;51.538;6.728;2023-04-10T04:08:17;10.90;99.90
19085;DHT22;9675;51.538;6.728;2023-04-10T04:10:44;10.90;99.90
19085;DHT22;9675;51.538;6.728;2023-04-10T04:13:13;10.90;99.90
19085;DHT22;9675;51.538;6.728;2023-04-10T04:15:40;10.80;99.90
19085;DHT22;9675;51.538;6.728;2023-04-10T04:18:08;10.80;99.90
19085;DHT22;9675;51.538;6.728;2023-04-10T04:20:35;10.80;99.90
19085;DHT22;9675;51.538;6.728;2023-04-10T04:23:02;10.80;99.90
19085;DHT22;9675;51.538;6.728;2023-04-10T04:25:29;10.80;99.90
19085;DHT22;9675;51.538;6.728;2023-04-10T04:27:56;10.70;99.90
19085;DHT22;9675;51.538;6.728;2023-04-10T04:30:25;10.70;99.90
19085;DHT22;9675;51.538;6.728;2023-04-10T04:32:52;10.70;99.90
19085;DHT22;9675;51.538;6.728;2023-04-10T04:35:21;10.70;99.90
19085;DHT22;9675;51.538;6.728;2023-04-10T04:37:48;10.70;99.90
19085;DHT22;9675;51.538;6.728;2023-04-10T04:40:16;10.60;99.90
19085;DHT22;9675;51.538;6.728;2023-04-10T04:42:43;10.60;99.90
19085;DHT22;9675;51.538;6.728;2023-04-10T04:45:10;10.60;99.90
19085;DHT22;9675;51.538;6.728;2023-04-10T04:47:38;10.60;99.90
19085;DHT22;9675;51.538;6.728;2023-04-10T04:50:07;10.60;99.90
19085;DHT22;9675;51.538;6.728;2023-04-10T04:52:35;10.50;99.90
19085;DHT22;9675;51.538;6.728;2023-04-10T04:55:02;10.50;99.90
19085;DHT22;9675;51.538;6.728;2023-04-10T04:57:29;10.50;99.90
19085;DHT22;9675;51.538;6.728;2023-04-10T04:59:56;10.50;99.90
19085;DHT22;9675;51.538;6.728;2023-04-10T05:02:23;10.50;99.90
19085;DHT22;9675;51.538;6.728;2023-04-10T05:04:52;10.50;99.90
19085;DHT22;9675;51.538;6.728;2023-04-10T05:07:19;10.50;99.90
19085;DHT22;9675;51.538;6.728;2023-04-10T05:09:46;10.40;99.90
19085;DHT22;9675;51.538;6.728;2023-04-10T05:12:13;10.40;99.90
19085;DHT22;9675;51.538;6.728;2023-04-10T05:14:40;10.40;99.90
19085;DHT22;9675;51.538;6.728;2023-04-10T05:17:07;10.40;99.90
19085;DHT22;9675;51.538;6.728;2023-04-10T05:19:34;10.40;99.90
19085;DHT22;9675;51.538;6.728;2023-04-10T05:22:02;10.40;99.90
19085;DHT22;9675;51.538;6.728;2023-04-10T05:24:29;10.30;99.90
19085;DHT22;9675;51.538;6.728;2023-04-10T05:26:57;10.40;99.90
19085;DHT22;9675;51.538;6.728;2023-04-10T05:29:24;10.30;99.90
19085;DHT22;9675;51.538;6.728;2023-04-10T05:31:51;10.30;99.90
19085;DHT22;9675;51.538;6.728;2023-04-10T05:34:18;10.30;99.90
19085;DHT22;9675;51.538;6.728;2023-04-10T05:36:45;10.30;99.90
19085;DHT22;9675;51.538;6.728;2023-04-10T05:39:13;10.30;99.90
19085;DHT22;9675;51.538;6.728;2023-04-10T05:41:41;10.30;99.90
19085;DHT22;9675;51.538;6.728;2023-04-10T05:44:08;10.20;99.90
19085;DHT22;9675;51.538;6.728;2023-04-10T05:46:35;10.20;99.90
19085;DHT22;9675;51.538;6.728;2023-04-10T05:49:02;10.20;99.90
19085;DHT22;9675;51.538;6.728;2023-04-10T05:51:30;10.20;99.90
19085;DHT22;9675;51.538;6.728;2023-04-10T05:53:57;10.20;99.90
19085;DHT22;9675;51.538;6.728;2023-04-10T05:56:25;10.20;99.90
19085;DHT22;9675;51.538;6.728;2023-04-10T05:58:52;10.10;99.90
19085;DHT22;9675;51.538;6.728;2023-04-10T06:01:19;10.20;99.90
19085;DHT22;9675;51.538;6.728;2023-04-10T06:03:46;10.20;99.90
19085;DHT22;9675;51.538;6.728;2023-04-10T06:06:13;10.10;99.90
19085;DHT22;9675;51.538;6.728;2023-04-10T06:08:40;10.10;99.90
19085;DHT22;9675;51.538;6.728;2023-04-10T06:11:08;10.20;99.90
19085;DHT22;9675;51.538;6.728;2023-04-10T06:13:36;10.20;99.90
19085;DHT22;9675;51.538;6.728;2023-04-10T06:16:04;10.10;99.90
19085;DHT22;9675;51.538;6.728;2023-04-10T06:18:31;10.20;99.90
19085;DHT22;9675;51.538;6.728;2023-04-10T06:20:58;10.20;99.90
19085;DHT22;9675;51.538;6.728;2023-04-10T06:23:26;10.20;99.90
19085;DHT22;9675;51.538;6.728;2023-04-10T06:25:53;10.20;99.90
19085;DHT22;9675;51.538;6.728;2023-04-10T06:28:20;10.30;99.90
19085;DHT22;9675;51.538;6.728;2023-04-10T06:30:49;10.20;99.90
19085;DHT22;9675;51.538;6.728;2023-04-10T06:33:16;10.30;99.90
19085;DHT22;9675;51.538;6.728;2023-04-10T06:35:43;10.30;99.90
19085;DHT22;9675;51.538;6.728;2023-04-10T06:38:10;10.40;99.90
19085;DHT22;9675;51.538;6.728;2023-04-10T06:40:37;10.40;99.90
19085;DHT22;9675;51.538;6.728;2023-04-10T06:43:06;10.50;99.90
19085;DHT22;9675;51.538;6.728;2023-04-10T06:45:33;10.50;99.90
19085;DHT22;9675;51.538;6.728;2023-04-10T06:48:02;10.50;99.90
19085;DHT22;9675;51.538;6.728;2023-04-10T06:50:29;10.50;99.90
19085;DHT22;9675;51.538;6.728;2023-04-10T06:52:56;10.60;99.90
19085;DHT22;9675;51.538;6.728;2023-04-10T06:55:24;10.60;99.90
19085;DHT22;9675;51.538;6.728;2023-04-10T06:57:51;10.70;99.90
19085;DHT22;9675;51.538;6.728;2023-04-10T07:00:20;10.70;99.90
19085;DHT22;9675;51.538;6.728;2023-04-10T07:02:48;10.80;99.90
19085;DHT22;9675;51.538;6.728;2023-04-10T07:05:17;10.80;99.90
19085;DHT22;9675;51.538;6.728;2023-04-10T07:07:44;10.90;99.90
19085;DHT22;9675;51.538;6.728;2023-04-10T07:10:12;10.90;99.90
19085;DHT22;9675;51.538;6.728;2023-04-10T07:12:39;11.00;99.90
19085;DHT22;9675;51.538;6.728;2023-04-10T07:15:07;11.00;99.90
19085;DHT22;9675;51.538;6.728;2023-04-10T07:17:36;11.00;99.90
19085;DHT22;9675;51.538;6.728;2023-04-10T07:20:06;11.10;99.90
19085;DHT22;9675;51.538;6.728;2023-04-10T07:22:35;11.10;99.90
19085;DHT22;9675;51.538;6.728;2023-04-10T07:25:03;11.10;99.90
19085;DHT22;9675;51.538;6.728;2023-04-10T07:27:34;11.20;99.90
19085;DHT22;9675;51.538;6.728;2023-04-10T07:30:01;11.30;99.90
19085;DHT22;9675;51.538;6.728;2023-04-10T07:32:29;11.30;99.90
19085;DHT22;9675;51.538;6.728;2023-04-10T07:34:58;11.30;99.90
19085;DHT22;9675;51.538;6.728;2023-04-10T07:37:25;11.40;99.90
19085;DHT22;9675;51.538;6.728;2023-04-10T07:39:54;11.40;99.90
19085;DHT22;9675;51.538;6.728;2023-04-10T07:42:22;11.50;99.90
19085;DHT22;9675;51.538;6.728;2023-04-10T07:44:49;11.50;99.90
19085;DHT22;9675;51.538;6.728;2023-04-10T07:47:16;11.60;99.90
19085;DHT22;9675;51.538;6.728;2023-04-10T07:49:45;11.60;99.90
19085;DHT22;9675;51.538;6.728;2023-04-10T07:52:12;11.70;99.90
19085;DHT22;9675;51.538;6.728;2023-04-10T07:54:40;11.70;99.90
19085;DHT22;9675;51.538;6.728;2023-04-10T07:57:11;11.80;99.90
19085;DHT22;9675;51.538;6.728;2023-04-10T07:59:38;11.80;99.90
19085;DHT22;9675;51.538;6.728;2023-04-10T08:02:05;12.00;99.90
19085;DHT22;9675;51.538;6.728;2023-04-10T08:04:32;12.00;99.90
19085;DHT22;9675;51.538;6.728;2023-04-10T08:07:00;12.10;99.90
19085;DHT22;9675;51.538;6.728;2023-04-10T08:09:27;12.10;99.90
19085;DHT22;9675;51.538;6.728;2023-04-10T08:11:55;12.20;99.90
19085;DHT22;9675;51.538;6.728;2023-04-10T08:14:26;12.30;99.90
19085;DHT22;9675;51.538;6.728;2023-04-10T08:16:53;12.40;99.90
19085;DHT22;9675;51.538;6.728;2023-04-10T08:19:20;12.40;99.90
19085;DHT22;9675;51.538;6.728;2023-04-10T08:21:47;12.50;99.90
19085;DHT22;9675;51.538;6.728;2023-04-10T08:24:15;12.60;99.90
19085;DHT22;9675;51.538;6.728;2023-04-10T08:26:44;12.70;99.90
19085;DHT22;9675;51.538;6.728;2023-04-10T08:29:11;12.80;99.90
19085;DHT22;9675;51.538;6.728;2023-04-10T08:31:42;12.90;99.90
19085;DHT22;9675;51.538;6.728;2023-04-10T08:34:10;12.90;99.90
19085;DHT22;9675;51.538;6.728;2023-04-10T08:36:37;13.00;99.90
19085;DHT22;9675;51.538;6.728;2023-04-10T08:39:04;13.00;99.90
19085;DHT22;9675;51.538;6.728;2023-04-10T08:41:31;13.10;99.90
19085;DHT22;9675;51.538;6.728;2023-04-10T08:43:58;13.20;99.90
19085;DHT22;9675;51.538;6.728;2023-04-10T08:46:25;13.30;99.90
19085;DHT22;9675;51.538;6.728;2023-04-10T08:49:00;13.40;99.90
19085;DHT22;9675;51.538;6.728;2023-04-10T08:51:31;13.40;99.90
19085;DHT22;9675;51.538;6.728;2023-04-10T08:54:06;13.50;99.90
19085;DHT22;9675;51.538;6.728;2023-04-10T08:56:36;13.50;99.90
19085;DHT22;9675;51.538;6.728;2023-04-10T08:59:07;13.60;99.90
19085;DHT22;9675;51.538;6.728;2023-04-10T09:01:34;13.70;99.90
19085;DHT22;9675;51.538;6.728;2023-04-10T09:04:03;13.80;99.90
19085;DHT22;9675;51.538;6.728;2023-04-10T09:06:31;13.80;99.90
19085;DHT22;9675;51.538;6.728;2023-04-10T09:08:58;13.90;99.90
19085;DHT22;9675;51.538;6.728;2023-04-10T09:11:55;13.90;99.90
19085;DHT22;9675;51.538;6.728;2023-04-10T09:14:26;14.00;99.90
19085;DHT22;9675;51.538;6.728;2023-04-10T09:17:11;14.10;99.90
19085;DHT22;9675;51.538;6.728;2023-04-10T09:19:44;14.20;99.90
19085;DHT22;9675;51.538;6.728;2023-04-10T09:22:13;14.20;99.90
19085;DHT22;9675;51.538;6.728;2023-04-10T09:24:42;14.30;99.90
19085;DHT22;9675;51.538;6.728;2023-04-10T09:27:11;14.40;99.90
19085;DHT22;9675;51.538;6.728;2023-04-10T09:29:53;14.50;99.90
19085;DHT22;9675;51.538;6.728;2023-04-10T09:32:36;14.60;99.90
19085;DHT22;9675;51.538;6.728;2023-04-10T09:35:07;14.70;99.90
19085;DHT22;9675;51.538;6.728;2023-04-10T09:37:36;14.80;99.90
19085;DHT22;9675;51.538;6.728;2023-04-10T09:40:06;14.90;99.90
19085;DHT22;9675;51.538;6.728;2023-04-10T09:42:45;15.00;99.90
19085;DHT22;9675;51.538;6.728;2023-04-10T09:45:13;15.00;99.90
19085;DHT22;9675;51.538;6.728;2023-04-10T09:48:00;15.00;99.90
19085;DHT22;9675;51.538;6.728;2023-04-10T09:50:34;15.10;99.90
19085;DHT22;9675;51.538;6.728;2023-04-10T09:53:02;15.20;99.90
19085;DHT22;9675;51.538;6.728;2023-04-10T09:55:29;15.30;99.90
19085;DHT22;9675;51.538;6.728;2023-04-10T09:57:57;15.40;99.90
19085;DHT22;9675;51.538;6.728;2023-04-10T10:00:26;15.40;99.90
19085;DHT22;9675;51.538;6.728;2023-04-10T10:02:54;15.50;99.90
19085;DHT22;9675;51.538;6.728;2023-04-10T10:05:25;15.60;99.90
19085;DHT22;9675;51.538;6.728;2023-04-10T10:07:58;15.70;99.90
19085;DHT22;9675;51.538;6.728;2023-04-10T10:10:26;15.70;99.90
19085;DHT22;9675;51.538;6.728;2023-04-10T10:12:56;15.80;99.90
19085;DHT22;9675;51.538;6.728;2023-04-10T10:15:30;15.80;99.90
19085;DHT22;9675;51.538;6.728;2023-04-10T10:18:06;15.90;99.90
19085;DHT22;9675;51.538;6.728;2023-04-10T10:20:49;15.90;99.90
19085;DHT22;9675;51.538;6.728;2023-04-10T10:23:18;16.00;99.90
19085;DHT22;9675;51.538;6.728;2023-04-10T10:25:48;16.10;99.90
19085;DHT22;9675;51.538;6.728;2023-04-10T10:28:17;16.20;99.90
19085;DHT22;9675;51.538;6.728;2023-04-10T10:30:46;16.20;99.90
19085;DHT22;9675;51.538;6.728;2023-04-10T10:33:14;16.30;99.90
19085;DHT22;9675;51.538;6.728;2023-04-10T10:35:42;16.30;99.90
19085;DHT22;9675;51.538;6.728;2023-04-10T10:38:10;16.40;99.90
19085;DHT22;9675;51.538;6.728;2023-04-10T10:40:43;16.40;99.90
19085;DHT22;9675;51.538;6.728;2023-04-10T10:43:24;16.50;99.90
19085;DHT22;9675;51.538;6.728;2023-04-10T10:46:03;16.50;99.90
19085;DHT22;9675;51.538;6.728;2023-04-10T10:48:35;16.60;99.90
19085;DHT22;9675;51.538;6.728;2023-04-10T10:51:02;16.60;99.90
19085;DHT22;9675;51.538;6.728;2023-04-10T10:53:36;16.70;99.90
19085;DHT22;9675;51.538;6.728;2023-04-10T10:56:34;16.70;99.90
19085;DHT22;9675;51.538;6.728;2023-04-10T10:59:02;16.80;99.90
19085;DHT22;9675;51.538;6.728;2023-04-10T11:01:29;16.80;99.90
19085;DHT22;9675;51.538;6.728;2023-04-10T11:03:56;16.90;99.90
19085;DHT22;9675;51.538;6.728;2023-04-10T11:06:50;16.90;99.90
19085;DHT22;9675;51.538;6.728;2023-04-10T11:09:44;17.00;99.90
19085;DHT22;9675;51.538;6.728;2023-04-10T11:12:14;17.00;99.90
19085;DHT22;9675;51.538;6.728;2023-04-10T11:14:42;17.00;99.90
19085;DHT22;9675;51.538;6.728;2023-04-10T11:17:11;17.10;99.90
19085;DHT22;9675;51.538;6.728;2023-04-10T11:19:58;17.10;99.90
19085;DHT22;9675;51.538;6.728;2023-04-10T11:22:26;17.10;99.90
19085;DHT22;9675;51.538;6.728;2023-04-10T11:24:58;17.20;99.90
19085;DHT22;9675;51.538;6.728;2023-04-10T11:27:45;17.20;99.90
19085;DHT22;9675;51.538;6.728;2023-04-10T11:30:28;17.20;99.90
19085;DHT22;9675;51.538;6.728;2023-04-10T11:33:00;17.30;99.90
19085;DHT22;9675;51.538;6.728;2023-04-10T11:35:29;17.30;99.90
19085;DHT22;9675;51.538;6.728;2023-04-10T11:38:14;17.40;99.90
19085;DHT22;9675;51.538;6.728;2023-04-10T11:40:55;17.40;99.90
19085;DHT22;9675;51.538;6.728;2023-04-10T11:43:25;17.40;99.90
19085;DHT22;9675;51.538;6.728;2023-04-10T11:46:02;17.40;99.90
19085;DHT22;9675;51.538;6.728;2023-04-10T11:48:31;17.50;99.90
19085;DHT22;9675;51.538;6.728;2023-04-10T11:50:58;17.50;99.90
19085;DHT22;9675;51.538;6.728;2023-04-10T11:53:33;17.50;99.90
19085;DHT22;9675;51.538;6.728;2023-04-10T11:56:00;17.60;99.90
19085;DHT22;9675;51.538;6.728;2023-04-10T11:58:29;17.60;99.90
19085;DHT22;9675;51.538;6.728;2023-04-10T12:00:58;17.70;99.90
19085;DHT22;9675;51.538;6.728;2023-04-10T12:03:37;17.70;99.90
19085;DHT22;9675;51.538;6.728;2023-04-10T12:06:07;17.70;99.90
19085;DHT22;9675;51.538;6.728;2023-04-10T12:08:37;17.80;99.90
19085;DHT22;9675;51.538;6.728;2023-04-10T12:11:07;17.80;99.90
19085;DHT22;9675;51.538;6.728;2023-04-10T12:13:37;17.90;99.90
19085;DHT22;9675;51.538;6.728;2023-04-10T12:16:07;17.90;99.90
19085;DHT22;9675;51.538;6.728;2023-04-10T12:18:35;18.00;99.90
19085;DHT22;9675;51.538;6.728;2023-04-10T12:21:04;18.00;99.90
19085;DHT22;9675;51.538;6.728;2023-04-10T12:23:35;18.00;99.90
19085;DHT22;9675;51.538;6.728;2023-04-10T12:26:12;18.00;99.90
19085;DHT22;9675;51.538;6.728;2023-04-10T12:28:50;18.00;99.90
19085;DHT22;9675;51.538;6.728;2023-04-10T12:31:25;18.10;99.90
19085;DHT22;9675;51.538;6.728;2023-04-10T12:33:53;18.10;99.90
19085;DHT22;9675;51.538;6.728;2023-04-10T12:36:23;18.20;99.90
19085;DHT22;9675;51.538;6.728;2023-04-10T12:38:53;18.20;99.90
19085;DHT22;9675;51.538;6.728;2023-04-10T12:41:22;18.30;99.90
19085;DHT22;9675;51.538;6.728;2023-04-10T12:44:04;18.30;99.90
19085;DHT22;9675;51.538;6.728;2023-04-10T12:46:33;18.30;99.90
19085;DHT22;9675;51.538;6.728;2023-04-10T12:49:08;18.40;99.90
19085;DHT22;9675;51.538;6.728;2023-04-10T12:51:44;18.40;99.90
19085;DHT22;9675;51.538;6.728;2023-04-10T12:54:26;18.50;99.90
19085;DHT22;9675;51.538;6.728;2023-04-10T12:56:56;18.60;99.90
19085;DHT22;9675;51.538;6.728;2023-04-10T12:59:25;18.60;99.90
19085;DHT22;9675;51.538;6.728;2023-04-10T13:01:52;18.60;99.90
19085;DHT22;9675;51.538;6.728;2023-04-10T13:04:19;18.60;99.90
19085;DHT22;9675;51.538;6.728;2023-04-10T13:06:48;18.60;99.90
19085;DHT22;9675;51.538;6.728;2023-04-10T13:09:17;18.60;99.90
19085;DHT22;9675;51.538;6.728;2023-04-10T13:11:44;18.60;99.90
19085;DHT22;9675;51.538;6.728;2023-04-10T13:14:11;18.60;99.90
19085;DHT22;9675;51.538;6.728;2023-04-10T13:16:40;18.70;99.90
19085;DHT22;9675;51.538;6.728;2023-04-10T13:19:07;18.70;99.90
19085;DHT22;9675;51.538;6.728;2023-04-10T13:21:34;18.70;99.90
19085;DHT22;9675;51.538;6.728;2023-04-10T13:24:01;18.70;99.90
19085;DHT22;9675;51.538;6.728;2023-04-10T13:26:28;18.70;99.90
19085;DHT22;9675;51.538;6.728;2023-04-10T13:28:55;18.70;99.90
19085;DHT22;9675;51.538;6.728;2023-04-10T13:31:22;18.70;99.90
19085;DHT22;9675;51.538;6.728;2023-04-10T13:33:50;18.70;99.90
19085;DHT22;9675;51.538;6.728;2023-04-10T13:36:17;18.70;99.90
19085;DHT22;9675;51.538;6.728;2023-04-10T13:38:44;18.70;99.90
19085;DHT22;9675;51.538;6.728;2023-04-10T13:41:11;18.70;99.90
19085;DHT22;9675;51.538;6.728;2023-04-10T13:43:38;18.80;99.90
19085;DHT22;9675;51.538;6.728;2023-04-10T13:46:06;18.80;99.90
19085;DHT22;9675;51.538;6.728;2023-04-10T13:48:33;18.80;99.90
19085;DHT22;9675;51.538;6.728;2023-04-10T13:51:07;18.80;99.90
19085;DHT22;9675;51.538;6.728;2023-04-10T13:53:34;18.80;99.90
19085;DHT22;9675;51.538;6.728;2023-04-10T13:56:01;18.70;99.90
19085;DHT22;9675;51.538;6.728;2023-04-10T13:58:28;18.80;99.90
19085;DHT22;9675;51.538;6.728;2023-04-10T14:00:56;18.80;99.90
19085;DHT22;9675;51.538;6.728;2023-04-10T14:03:23;18.80;99.90
19085;DHT22;9675;51.538;6.728;2023-04-10T14:05:50;18.80;99.90
19085;DHT22;9675;51.538;6.728;2023-04-10T14:08:19;18.80;99.90
19085;DHT22;9675;51.538;6.728;2023-04-10T14:10:46;18.80;99.90
19085;DHT22;9675;51.538;6.728;2023-04-10T14:13:15;18.80;99.90
19085;DHT22;9675;51.538;6.728;2023-04-10T14:15:42;18.80;99.90
19085;DHT22;9675;51.538;6.728;2023-04-10T14:18:09;18.80;99.90
19085;DHT22;9675;51.538;6.728;2023-04-10T14:20:37;18.80;99.90
19085;DHT22;9675;51.538;6.728;2023-04-10T14:23:06;18.80;99.90
19085;DHT22;9675;51.538;6.728;2023-04-10T14:25:35;18.80;99.90
19085;DHT22;9675;51.538;6.728;2023-04-10T14:28:02;18.80;99.90
19085;DHT22;9675;51.538;6.728;2023-04-10T14:30:29;18.80;99.90
19085;DHT22;9675;51.538;6.728;2023-04-10T14:32:57;18.80;99.90
19085;DHT22;9675;51.538;6.728;2023-04-10T14:35:24;18.80;99.90
19085;DHT22;9675;51.538;6.728;2023-04-10T14:37:51;18.80;99.90
19085;DHT22;9675;51.538;6.728;2023-04-10T14:40:18;18.80;99.90
19085;DHT22;9675;51.538;6.728;2023-04-10T14:42:46;18.80;99.90
19085;DHT22;9675;51.538;6.728;2023-04-10T14:45:13;18.80;99.90
19085;DHT22;9675;51.538;6.728;2023-04-10T14:47:42;18.80;99.90
19085;DHT22;9675;51.538;6.728;2023-04-10T14:50:10;18.80;99.90
19085;DHT22;9675;51.538;6.728;2023-04-10T14:52:37;18.80;99.90
19085;DHT22;9675;51.538;6.728;2023-04-10T14:55:05;18.80;99.90
19085;DHT22;9675;51.538;6.728;2023-04-10T14:57:32;18.80;99.90
19085;DHT22;9675;51.538;6.728;2023-04-10T15:00:02;18.80;99.90
19085;DHT22;9675;51.538;6.728;2023-04-10T15:02:29;18.70;99.90
19085;DHT22;9675;51.538;6.728;2023-04-10T15:04:56;18.70;99.90
19085;DHT22;9675;51.538;6.728;2023-04-10T15:07:23;18.80;99.90
19085;DHT22;9675;51.538;6.728;2023-04-10T15:09:55;18.80;99.90
19085;DHT22;9675;51.538;6.728;2023-04-10T15:12:23;18.80;99.90
19085;DHT22;9675;51.538;6.728;2023-04-10T15:14:50;18.80;99.90
19085;DHT22;9675;51.538;6.728;2023-04-10T15:17:20;18.80;99.90
19085;DHT22;9675;51.538;6.728;2023-04-10T15:19:48;18.80;99.90
19085;DHT22;9675;51.538;6.728;2023-04-10T15:22:15;18.70;99.90
19085;DHT22;9675;51.538;6.728;2023-04-10T15:24:42;18.70;99.90
19085;DHT22;9675;51.538;6.728;2023-04-10T15:27:09;18.70;99.90
19085;DHT22;9675;51.538;6.728;2023-04-10T15:29:37;18.70;99.90
19085;DHT22;9675;51.538;6.728;2023-04-10T15:32:09;18.70;99.90
19085;DHT22;9675;51.538;6.728;2023-04-10T15:34:37;18.70;99.90
19085;DHT22;9675;51.538;6.728;2023-04-10T15:37:04;18.70;99.90
19085;DHT22;9675;51.538;6.728;2023-04-10T15:39:31;18.70;99.90
19085;DHT22;9675;51.538;6.728;2023-04-10T15:41:58;18.70;99.90
19085;DHT22;9675;51.538;6.728;2023-04-10T15:44:26;18.70;99.90
19085;DHT22;9675;51.538;6.728;2023-04-10T15:46:53;18.70;99.90
19085;DHT22;9675;51.538;6.728;2023-04-10T15:49:20;18.70;99.90
19085;DHT22;9675;51.538;6.728;2023-04-10T15:51:48;18.70;99.90
19085;DHT22;9675;51.538;6.728;2023-04-10T15:54:15;18.60;99.90
19085;DHT22;9675;51.538;6.728;2023-04-10T15:56:42;18.60;99.90
19085;DHT22;9675;51.538;6.728;2023-04-10T15:59:10;18.70;99.90
19085;DHT22;9675;51.538;6.728;2023-04-10T16:01:37;18.60;99.90